createdAt,value
2017-11-08T00:02:04.359Z,21.10
2017-11-08T00:04:32.780Z,26.90
2017-11-08T00:07:00.487Z,28.27
2017-11-08T00:09:28.167Z,22.27
2017-11-08T00:11:55.867Z,23.30
2017-11-08T00:14:23.527Z,25.00
2017-11-08T00:16:51.218Z,24.40
2017-11-08T00:19:19.687Z,24.80
2017-11-08T00:21:47.403Z,24.50
2017-11-08T00:24:15.055Z,20.10
2017-11-08T00:26:42.755Z,20.40
2017-11-08T00:29:10.415Z,22.33
2017-11-08T00:31:38.115Z,25.73
2017-11-08T00:34:05.804Z,24.90
2017-11-08T00:36:33.511Z,22.27
2017-11-08T00:39:01.167Z,26.43
2017-11-08T00:41:28.866Z,23.87
2017-11-08T00:43:56.527Z,22.17
2017-11-08T00:46:24.226Z,21.07
2017-11-08T00:48:51.875Z,27.93
2017-11-08T00:51:19.611Z,22.33
2017-11-08T00:53:47.275Z,22.53
2017-11-08T00:56:14.989Z,22.87
2017-11-08T00:58:42.649Z,22.70
2017-11-08T01:01:10.346Z,24.50
2017-11-08T01:03:37.999Z,25.97
2017-11-08T01:06:06.474Z,22.53
2017-11-08T01:08:34.895Z,24.80
2017-11-08T01:11:02.595Z,23.83
2017-11-08T01:13:30.256Z,22.47
2017-11-08T01:15:58.729Z,23.80
2017-11-08T01:18:26.395Z,25.27
2017-11-08T01:20:54.106Z,24.20
2017-11-08T01:23:21.774Z,20.23
2017-11-08T01:25:49.471Z,28.50
2017-11-08T01:28:17.898Z,24.33
2017-11-08T01:30:45.605Z,24.87
2017-11-08T01:33:14.035Z,26.27
2017-11-08T01:35:41.743Z,26.10
2017-11-08T01:38:13.238Z,24.33
2017-11-08T01:40:43.599Z,23.70
2017-11-08T01:43:11.286Z,24.60
2017-11-08T01:45:42.693Z,25.50
2017-11-08T01:48:10.564Z,26.93
2017-11-08T01:50:39.186Z,25.47
2017-11-08T01:53:07.610Z,27.80
2017-11-08T01:55:38.350Z,25.70
2017-11-08T01:58:06.214Z,27.47
2017-11-08T02:00:33.928Z,26.80
2017-11-08T02:03:01.639Z,23.07
2017-11-08T02:05:30.134Z,30.07
2017-11-08T02:07:57.807Z,28.33
2017-11-08T02:10:26.280Z,29.57
2017-11-08T02:12:54.828Z,24.50
2017-11-08T02:15:22.576Z,34.50
2017-11-08T02:17:52.020Z,25.37
2017-11-08T02:20:19.784Z,27.67
2017-11-08T02:22:48.263Z,28.43
2017-11-08T02:25:16.754Z,28.63
2017-11-08T02:27:45.271Z,29.93
2017-11-08T02:30:12.986Z,33.57
2017-11-08T02:32:43.333Z,28.10
2017-11-08T02:35:11.071Z,28.87
2017-11-08T02:37:43.014Z,31.33
2017-11-08T02:40:12.892Z,26.40
2017-11-08T02:42:41.824Z,27.97
2017-11-08T02:45:10.316Z,28.43
2017-11-08T02:47:39.874Z,28.10
2017-11-08T02:50:08.997Z,29.83
2017-11-08T02:52:38.573Z,28.60
2017-11-08T02:55:12.731Z,29.50
2017-11-08T02:57:41.219Z,25.70
2017-11-08T03:00:08.916Z,24.70
2017-11-08T03:02:42.913Z,30.63
2017-11-08T03:05:16.303Z,28.17
2017-11-08T03:07:44.120Z,29.10
2017-11-08T03:10:11.791Z,27.90
2017-11-08T03:12:40.264Z,28.37
2017-11-08T03:15:08.700Z,27.03
2017-11-08T03:17:36.406Z,27.27
2017-11-08T03:20:04.851Z,27.33
2017-11-08T03:22:32.568Z,28.57
2017-11-08T03:25:00.243Z,29.23
2017-11-08T03:27:27.947Z,28.57
2017-11-08T03:29:55.617Z,28.90
2017-11-08T03:32:24.087Z,26.07
2017-11-08T03:34:51.752Z,26.03
2017-11-08T03:37:20.288Z,28.30
2017-11-08T03:39:47.974Z,27.53
2017-11-08T03:42:15.711Z,29.20
2017-11-08T03:44:43.391Z,28.27
2017-11-08T03:47:11.091Z,27.73
2017-11-08T03:49:38.808Z,28.73
2017-11-08T03:52:06.518Z,32.33
2017-11-08T03:54:34.178Z,29.07
2017-11-08T03:57:01.885Z,27.80
2017-11-08T03:59:29.550Z,31.20
2017-11-08T04:01:57.251Z,32.87
2017-11-08T04:04:24.923Z,36.00
2017-11-08T04:06:52.638Z,35.10
2017-11-08T04:09:20.352Z,30.40
2017-11-08T04:11:48.063Z,27.20
2017-11-08T04:14:15.729Z,33.30
2017-11-08T04:16:44.206Z,33.67
2017-11-08T04:19:12.626Z,32.00
2017-11-08T04:21:40.381Z,32.33
2017-11-08T04:24:08.090Z,33.13
2017-11-08T04:26:35.830Z,30.23
2017-11-08T04:29:03.506Z,29.83
2017-11-08T04:31:31.203Z,30.00
2017-11-08T04:33:58.903Z,30.13
2017-11-08T04:36:26.607Z,37.57
2017-11-08T04:38:55.031Z,31.00
2017-11-08T04:41:22.722Z,30.70
2017-11-08T04:43:50.406Z,29.40
2017-11-08T04:46:18.932Z,32.37
2017-11-08T04:48:46.587Z,31.60
2017-11-08T04:51:14.292Z,31.00
2017-11-08T04:53:41.952Z,33.00
2017-11-08T04:56:09.652Z,34.90
2017-11-08T04:58:37.299Z,30.93
2017-11-08T05:01:05.005Z,30.67
2017-11-08T05:03:32.662Z,33.50
2017-11-08T05:06:00.363Z,30.67
2017-11-08T05:08:28.835Z,32.83
2017-11-08T05:10:57.263Z,33.03
2017-11-08T05:13:24.999Z,37.73
2017-11-08T05:15:52.661Z,35.50
2017-11-08T05:18:20.353Z,34.97
2017-11-08T05:20:48.016Z,35.73
2017-11-08T05:23:15.706Z,33.73
2017-11-08T05:25:43.627Z,32.40
2017-11-08T05:28:11.324Z,30.60
2017-11-08T05:30:38.991Z,36.97
2017-11-08T05:33:06.687Z,41.20
2017-11-08T05:35:34.343Z,32.97
2017-11-08T05:38:02.052Z,37.20
2017-11-08T05:40:29.714Z,32.40
2017-11-08T05:42:57.410Z,35.63
2017-11-08T05:45:25.839Z,33.77
2017-11-08T05:47:53.539Z,36.40
2017-11-08T05:50:21.964Z,37.73
2017-11-08T05:52:49.658Z,41.37
2017-11-08T05:55:17.323Z,38.40
2017-11-08T05:57:45.015Z,33.47
2017-11-08T06:00:12.675Z,38.63
2017-11-08T06:02:40.375Z,41.23
2017-11-08T06:05:08.047Z,40.73
2017-11-08T06:07:35.747Z,37.10
2017-11-08T06:10:03.443Z,41.20
2017-11-08T06:12:31.164Z,37.20
2017-11-08T06:14:59.579Z,40.73
2017-11-08T06:17:27.275Z,37.17
2017-11-08T06:19:54.936Z,43.10
2017-11-08T06:22:22.635Z,41.13
2017-11-08T06:24:50.283Z,45.23
2017-11-08T06:27:18.011Z,38.20
2017-11-08T06:29:45.663Z,35.53
2017-11-08T06:32:13.360Z,46.50
2017-11-08T06:34:41.017Z,42.93
2017-11-08T06:37:09.489Z,67.10
2017-11-08T06:39:37.155Z,46.20
2017-11-08T06:42:05.615Z,42.67
2017-11-08T06:44:34.053Z,43.43
2017-11-08T06:47:01.745Z,47.43
2017-11-08T06:49:29.481Z,47.47
2017-11-08T06:51:57.177Z,40.90
2017-11-08T06:54:25.598Z,41.40
2017-11-08T06:56:53.294Z,42.30
2017-11-08T06:59:20.978Z,43.00
2017-11-08T07:01:49.431Z,42.73
2017-11-08T07:04:17.087Z,44.63
2017-11-08T07:06:44.795Z,44.30
2017-11-08T07:09:12.468Z,43.80
2017-11-08T07:11:40.182Z,40.93
2017-11-08T07:14:07.842Z,43.47
2017-11-08T07:16:35.548Z,37.80
2017-11-08T07:19:03.267Z,46.00
2017-11-08T07:21:31.691Z,47.87
2017-11-08T07:23:59.387Z,51.63
2017-11-08T07:26:27.343Z,39.90
2017-11-08T07:28:55.035Z,38.77
2017-11-08T07:31:23.459Z,42.30
2017-11-08T07:33:51.160Z,45.90
2017-11-08T07:36:18.855Z,45.77
2017-11-08T07:38:46.549Z,41.40
2017-11-08T07:41:14.210Z,45.57
2017-11-08T07:43:42.679Z,42.00
2017-11-08T07:46:11.101Z,48.23
2017-11-08T07:48:39.571Z,44.60
2017-11-08T07:51:07.223Z,43.40
2017-11-08T07:53:34.921Z,42.70
2017-11-08T07:56:03.387Z,41.53
2017-11-08T07:58:31.856Z,72.80
2017-11-08T08:01:00.310Z,66.77
2017-11-08T08:03:28.059Z,77.93
2017-11-08T08:05:55.716Z,101.20
2017-11-08T08:08:23.410Z,49.97
2017-11-08T08:10:51.825Z,47.50
2017-11-08T08:13:19.535Z,45.53
2017-11-08T08:15:47.247Z,45.30
2017-11-08T08:18:14.947Z,44.50
2017-11-08T08:20:42.599Z,42.70
2017-11-08T08:23:10.311Z,48.43
2017-11-08T08:25:37.969Z,44.63
2017-11-08T08:28:05.707Z,40.93
2017-11-08T08:30:34.131Z,42.47
2017-11-08T08:33:01.835Z,49.47
2017-11-08T08:35:29.488Z,43.30
2017-11-08T08:37:57.219Z,49.03
2017-11-08T08:40:24.874Z,47.17
2017-11-08T08:42:52.572Z,46.20
2017-11-08T08:45:21.003Z,44.03
2017-11-08T08:47:48.703Z,46.23
2017-11-08T08:50:16.395Z,50.40
2017-11-08T08:52:44.854Z,45.40
2017-11-08T08:55:13.270Z,44.47
2017-11-08T08:57:41.064Z,44.03
2017-11-08T09:00:08.742Z,46.97
2017-11-08T09:02:51.203Z,43.30
2017-11-08T09:05:18.876Z,44.43
2017-11-08T09:07:46.570Z,44.60
2017-11-08T09:10:14.218Z,47.17
2017-11-08T09:12:41.921Z,45.10
2017-11-08T09:15:09.586Z,48.47
2017-11-08T09:17:37.311Z,50.10
2017-11-08T09:20:05.009Z,44.43
2017-11-08T09:22:32.730Z,52.50
2017-11-08T09:25:15.087Z,43.33
2017-11-08T09:27:42.825Z,52.33
2017-11-08T09:30:17.967Z,44.23
2017-11-08T09:32:45.683Z,52.30
2017-11-08T09:35:13.344Z,54.10
2017-11-08T09:37:48.148Z,45.73
2017-11-08T09:40:15.848Z,56.10
2017-11-08T09:42:51.047Z,47.47
2017-11-08T09:45:19.573Z,49.40
2017-11-08T09:47:48.048Z,47.53
2017-11-08T09:50:16.511Z,46.20
2017-11-08T09:52:44.211Z,53.80
2017-11-08T09:55:11.863Z,47.87
2017-11-08T09:57:39.560Z,47.17
2017-11-08T10:00:07.217Z,50.93
2017-11-08T10:02:34.967Z,50.87
2017-11-08T10:05:02.628Z,50.60
2017-11-08T10:07:30.397Z,46.87
2017-11-08T10:09:58.027Z,55.53
2017-11-08T10:12:25.837Z,59.73
2017-11-08T10:14:53.504Z,54.27
2017-11-08T10:17:21.228Z,54.13
2017-11-08T10:19:48.881Z,48.00
2017-11-08T10:22:16.542Z,50.60
2017-11-08T10:24:44.287Z,56.83
2017-11-08T10:27:11.947Z,50.27
2017-11-08T10:29:39.700Z,52.10
2017-11-08T10:32:07.509Z,48.90
2017-11-08T10:34:35.207Z,50.13
2017-11-08T10:37:03.643Z,55.83
2017-11-08T10:39:32.151Z,56.23
2017-11-08T10:44:27.741Z,49.60
2017-11-08T10:46:55.404Z,52.17
2017-11-08T10:49:29.449Z,61.53
2017-11-08T10:51:57.112Z,60.73
2017-11-08T10:54:24.876Z,55.57
2017-11-08T10:56:52.568Z,51.40
2017-11-08T10:59:21.249Z,55.10
2017-11-08T11:01:48.944Z,59.17
2017-11-08T11:04:17.416Z,54.37
2017-11-08T11:06:45.891Z,56.77
2017-11-08T11:09:13.657Z,67.10
2017-11-08T11:11:42.136Z,54.40
2017-11-08T11:14:10.722Z,58.33
2017-11-08T11:16:39.972Z,64.73
2017-11-08T11:19:12.688Z,55.80
2017-11-08T11:21:40.408Z,59.97
2017-11-08T11:24:13.124Z,56.90
2017-11-08T11:26:41.885Z,66.80
2017-11-08T11:29:10.672Z,65.90
2017-11-08T11:31:38.536Z,60.53
2017-11-08T11:34:06.509Z,58.53
2017-11-08T11:36:34.369Z,60.03
2017-11-08T11:39:02.617Z,59.87
2017-11-08T11:41:30.335Z,61.90
2017-11-08T11:43:58.861Z,66.37
2017-11-08T11:46:26.575Z,69.47
2017-11-08T11:48:54.338Z,78.53
2017-11-08T11:51:25.611Z,59.67
2017-11-08T11:53:53.373Z,65.20
2017-11-08T11:56:21.080Z,64.10
2017-11-08T11:58:48.847Z,66.73
2017-11-08T12:01:16.611Z,54.03
2017-11-08T12:03:44.381Z,58.53
2017-11-08T12:06:12.109Z,66.40
2017-11-08T12:08:39.881Z,60.93
2017-11-08T12:11:07.604Z,67.27
2017-11-08T12:13:35.356Z,60.03
2017-11-08T12:16:03.067Z,62.03
2017-11-08T12:18:30.857Z,65.57
2017-11-08T12:20:58.591Z,60.17
2017-11-08T12:23:26.372Z,62.97
2017-11-08T12:25:54.116Z,61.93
2017-11-08T12:28:23.836Z,61.77
2017-11-08T12:30:51.565Z,65.60
2017-11-08T12:33:19.353Z,61.10
2017-11-08T12:35:47.968Z,73.07
2017-11-08T12:38:16.508Z,82.70
2017-11-08T12:40:44.215Z,65.20
2017-11-08T12:43:13.665Z,71.53
2017-11-08T12:45:41.408Z,90.70
2017-11-08T12:48:09.185Z,100.07
2017-11-08T12:50:36.931Z,88.37
2017-11-08T12:53:04.748Z,62.10
2017-11-08T12:55:32.513Z,65.77
2017-11-08T12:58:01.008Z,70.03
2017-11-08T13:00:28.780Z,59.50
2017-11-08T13:02:56.685Z,60.77
2017-11-08T13:05:35.096Z,55.70
2017-11-08T13:08:02.964Z,62.20
2017-11-08T13:10:30.739Z,54.00
2017-11-08T13:12:58.481Z,60.70
2017-11-08T13:15:26.300Z,57.00
2017-11-08T13:17:54.031Z,60.77
2017-11-08T13:20:21.940Z,59.90
2017-11-08T13:22:49.718Z,59.77
2017-11-08T13:25:17.497Z,61.63
2017-11-08T13:27:45.208Z,62.07
2017-11-08T13:30:13.756Z,64.37
2017-11-08T13:32:42.330Z,62.67
2017-11-08T13:35:10.093Z,66.23
2017-11-08T13:37:37.792Z,68.93
2017-11-08T13:40:08.186Z,65.73
2017-11-08T13:42:35.904Z,60.93
2017-11-08T13:45:03.678Z,68.80
2017-11-08T13:47:31.432Z,64.03
2017-11-08T13:49:59.229Z,67.13
2017-11-08T13:52:26.947Z,63.57
2017-11-08T13:54:54.725Z,66.77
2017-11-08T13:57:22.400Z,64.30
2017-11-08T13:59:50.158Z,59.90
2017-11-08T14:02:17.869Z,65.37
2017-11-08T14:04:52.087Z,58.70
2017-11-08T14:07:19.767Z,58.40
2017-11-08T14:09:47.476Z,57.70
2017-11-08T14:12:15.156Z,65.93
2017-11-08T14:14:43.693Z,67.90
2017-11-08T14:17:11.454Z,57.87
2017-11-08T14:19:39.165Z,106.97
2017-11-08T14:22:06.840Z,82.13
2017-11-08T14:24:34.554Z,65.60
2017-11-08T14:27:02.272Z,64.47
2017-11-08T14:29:33.640Z,67.57
2017-11-08T14:32:01.308Z,69.13
2017-11-08T14:34:29.016Z,66.93
2017-11-08T14:36:56.681Z,60.57
2017-11-08T14:39:24.395Z,61.80
2017-11-08T14:41:52.953Z,69.63
2017-11-08T14:44:21.423Z,63.17
2017-11-08T14:46:49.084Z,64.93
2017-11-08T14:49:16.792Z,65.37
2017-11-08T14:51:45.223Z,60.40
2017-11-08T14:54:13.719Z,60.57
2017-11-08T14:56:41.513Z,58.47
2017-11-08T14:59:09.993Z,62.00
2017-11-08T15:01:38.430Z,61.70
2017-11-08T15:04:06.139Z,68.30
2017-11-08T15:06:34.585Z,66.50
2017-11-08T15:09:02.305Z,63.17
2017-11-08T15:11:35.636Z,63.50
2017-11-08T15:14:05.400Z,60.53
2017-11-08T15:16:33.096Z,58.87
2017-11-08T15:19:00.813Z,62.93
2017-11-08T15:21:28.511Z,59.70
2017-11-08T15:23:56.216Z,54.93
2017-11-08T15:26:24.636Z,57.10
2017-11-08T15:28:52.344Z,56.93
2017-11-08T15:31:20.772Z,58.47
2017-11-08T15:33:48.474Z,52.73
2017-11-08T15:36:16.140Z,59.67
2017-11-08T15:38:43.872Z,69.73
2017-11-08T15:41:11.529Z,61.80
2017-11-08T15:43:39.189Z,101.97
2017-11-08T15:46:07.520Z,82.47
2017-11-08T15:48:35.185Z,75.97
2017-11-08T15:51:02.891Z,66.23
2017-11-08T15:53:30.556Z,62.33
2017-11-08T15:55:58.256Z,73.17
2017-11-08T15:58:25.973Z,65.10
2017-11-08T16:00:53.681Z,67.97
2017-11-08T16:03:21.332Z,62.47
2017-11-08T16:05:49.808Z,67.47
2017-11-08T16:08:18.273Z,65.40
2017-11-08T16:10:46.749Z,69.07
2017-11-08T16:13:15.192Z,128.70
2017-11-08T16:15:42.896Z,70.73
2017-11-08T16:18:11.316Z,70.00
2017-11-08T16:20:39.036Z,70.10
2017-11-08T16:23:07.456Z,64.90
2017-11-08T16:25:35.161Z,66.15
2017-11-08T16:28:02.892Z,59.37
2017-11-08T16:30:30.632Z,61.70
2017-11-08T16:32:58.288Z,54.23
2017-11-08T16:35:25.991Z,58.50
2017-11-08T16:37:53.650Z,58.17
2017-11-08T16:40:21.355Z,58.77
2017-11-08T16:42:49.008Z,57.07
2017-11-08T16:45:16.720Z,68.23
2017-11-08T16:47:44.372Z,76.07
2017-11-08T16:50:12.076Z,72.43
2017-11-08T16:52:40.497Z,82.53
2017-11-08T16:55:08.204Z,74.03
2017-11-08T16:57:36.816Z,75.97
2017-11-08T17:00:04.612Z,77.30
2017-11-08T17:02:32.275Z,73.80
2017-11-08T17:04:59.975Z,119.70
2017-11-08T17:07:28.510Z,89.90
2017-11-08T17:09:56.375Z,79.13
2017-11-08T17:12:24.138Z,72.17
2017-11-08T17:14:51.836Z,63.97
2017-11-08T17:17:20.256Z,59.10
2017-11-08T17:19:47.965Z,60.03
2017-11-08T17:22:16.404Z,53.63
2017-11-08T17:24:44.109Z,60.57
2017-11-08T17:27:12.538Z,63.28
2017-11-08T17:29:40.533Z,70.27
2017-11-08T17:32:08.380Z,82.90
2017-11-08T17:34:36.241Z,76.70
2017-11-08T17:37:04.109Z,76.37
2017-11-08T17:39:31.969Z,66.67
2017-11-08T17:42:00.094Z,62.03
2017-11-08T17:44:27.901Z,60.70
2017-11-08T17:46:55.591Z,70.30
2017-11-08T17:49:23.291Z,141.10
2017-11-08T17:51:51.225Z,132.77
2017-11-08T17:54:19.713Z,70.17
2017-11-08T17:56:48.249Z,69.80
2017-11-08T17:59:16.362Z,74.27
2017-11-08T18:01:44.896Z,75.37
2017-11-08T18:04:12.660Z,80.37
2017-11-08T18:06:40.365Z,72.70
2017-11-08T18:09:08.786Z,70.20
2017-11-08T18:11:36.563Z,67.60
2017-11-08T18:14:04.317Z,68.53
2017-11-08T18:16:32.183Z,66.07
2017-11-08T18:19:00.661Z,62.40
2017-11-08T18:21:28.523Z,59.80
2017-11-08T18:23:56.285Z,68.40
2017-11-08T18:26:24.148Z,64.40
2017-11-08T18:28:51.912Z,63.43
2017-11-08T18:31:19.670Z,70.60
2017-11-08T18:33:47.432Z,67.13
2017-11-08T18:36:15.296Z,72.73
2017-11-08T18:38:43.160Z,65.27
2017-11-08T18:41:11.024Z,70.97
2017-11-08T18:43:38.785Z,68.00
2017-11-08T18:46:06.651Z,70.27
2017-11-08T18:48:34.411Z,72.63
2017-11-08T18:51:02.275Z,66.53
2017-11-08T18:53:30.035Z,76.50
2017-11-08T18:55:57.899Z,70.07
2017-11-08T18:58:25.764Z,70.70
2017-11-08T19:00:53.626Z,73.03
2017-11-08T19:03:21.495Z,71.87
2017-11-08T19:05:49.355Z,68.50
2017-11-08T19:08:17.120Z,72.43
2017-11-08T19:10:44.980Z,68.70
2017-11-08T19:13:12.742Z,66.60
2017-11-08T19:15:40.605Z,77.90
2017-11-08T19:18:08.368Z,68.67
2017-11-08T19:20:37.050Z,68.00
2017-11-08T19:23:04.917Z,70.10
2017-11-08T19:25:32.779Z,65.43
2017-11-08T19:28:00.646Z,74.50
2017-11-08T19:30:28.369Z,68.43
2017-11-08T19:32:56.038Z,68.97
2017-11-08T19:35:23.747Z,71.90
2017-11-08T19:37:51.416Z,73.33
2017-11-08T19:40:19.962Z,71.03
2017-11-08T19:42:47.947Z,67.87
2017-11-08T19:45:15.793Z,75.57
2017-11-08T19:47:43.560Z,78.27
2017-11-08T19:50:11.417Z,70.60
2017-11-08T19:52:39.178Z,62.47
2017-11-08T19:55:07.044Z,79.17
2017-11-08T19:57:36.642Z,95.43
2017-11-08T20:00:05.228Z,81.87
2017-11-08T20:02:34.761Z,89.70
2017-11-08T20:05:05.112Z,97.33
2017-11-08T20:07:35.068Z,92.13
2017-11-08T20:10:03.085Z,74.83
2017-11-08T20:12:31.717Z,93.93
2017-11-08T20:14:59.581Z,82.93
2017-11-08T20:17:27.342Z,75.17
2017-11-08T20:19:55.217Z,74.07
2017-11-08T20:22:23.070Z,68.27
2017-11-08T20:24:51.753Z,79.03
2017-11-08T20:27:19.626Z,75.00
2017-11-08T20:29:48.200Z,68.73
2017-11-08T20:32:16.318Z,70.43
2017-11-08T20:34:44.133Z,70.40
2017-11-08T20:37:11.994Z,71.10
2017-11-08T20:39:39.859Z,63.10
2017-11-08T20:42:08.434Z,68.60
2017-11-08T20:44:36.131Z,66.10
2017-11-08T20:47:04.781Z,71.63
2017-11-08T20:49:32.545Z,67.33
2017-11-08T20:52:00.407Z,75.43
2017-11-08T20:54:28.169Z,66.07
2017-11-08T20:56:56.032Z,67.27
2017-11-08T20:59:23.794Z,67.30
2017-11-08T21:01:51.653Z,63.13
2017-11-08T21:04:19.419Z,61.27
2017-11-08T21:06:47.283Z,61.30
2017-11-08T21:09:16.159Z,64.27
2017-11-08T21:11:44.035Z,64.27
2017-11-08T21:14:11.797Z,70.37
2017-11-08T21:16:39.661Z,56.60
2017-11-08T21:19:07.534Z,61.83
2017-11-08T21:21:35.527Z,71.37
2017-11-08T21:24:04.172Z,63.03
2017-11-08T21:26:31.860Z,62.80
2017-11-08T21:29:00.515Z,65.87
2017-11-08T21:31:28.225Z,63.13
2017-11-08T21:33:56.858Z,70.17
2017-11-08T21:36:24.619Z,61.50
2017-11-08T21:38:52.316Z,66.93
2017-11-08T21:41:20.745Z,60.37
2017-11-08T21:43:48.445Z,60.80
2017-11-08T21:46:16.108Z,66.73
2017-11-08T21:48:43.824Z,68.43
2017-11-08T21:51:11.487Z,73.77
2017-11-08T21:53:39.206Z,70.03
2017-11-08T21:56:06.891Z,61.73
2017-11-08T21:58:34.593Z,68.23
2017-11-08T22:01:02.252Z,71.17
2017-11-08T22:03:29.960Z,72.00
2017-11-08T22:05:57.616Z,80.87
2017-11-08T22:08:25.318Z,75.23
2017-11-08T22:10:52.973Z,80.43
2017-11-08T22:13:20.668Z,71.70
2017-11-08T22:15:49.137Z,80.03
2017-11-08T22:18:17.612Z,71.40
2017-11-08T22:20:46.053Z,73.53
2017-11-08T22:23:13.779Z,68.37
2017-11-08T22:25:42.228Z,68.00
2017-11-08T22:28:09.940Z,77.27
2017-11-08T22:30:37.664Z,74.87
2017-11-08T22:33:06.128Z,69.97
2017-11-08T22:35:33.872Z,72.97
2017-11-08T22:38:01.577Z,72.03
2017-11-08T22:40:29.364Z,75.43
2017-11-08T22:42:57.063Z,64.47
2017-11-08T22:45:24.796Z,67.00
2017-11-08T22:47:52.580Z,63.07
2017-11-08T22:50:20.436Z,65.10
2017-11-08T22:52:48.300Z,60.60
2017-11-08T22:55:16.164Z,65.43
2017-11-08T22:57:44.027Z,72.60
2017-11-08T23:00:11.888Z,69.30
2017-11-08T23:02:39.653Z,66.70
2017-11-08T23:05:07.517Z,64.10
2017-11-08T23:07:35.381Z,67.73
2017-11-08T23:10:03.248Z,72.40
2017-11-08T23:12:31.108Z,72.70
2017-11-08T23:14:58.973Z,76.27
2017-11-08T23:17:26.732Z,80.00
2017-11-08T23:19:54.597Z,76.27
2017-11-08T23:22:22.462Z,64.17
2017-11-08T23:24:50.325Z,77.37
2017-11-08T23:27:18.088Z,76.97
2017-11-08T23:29:46.054Z,73.57
2017-11-08T23:32:13.815Z,68.90
2017-11-08T23:34:41.501Z,76.67
2017-11-08T23:37:09.338Z,77.83
2017-11-08T23:39:37.107Z,81.83
2017-11-08T23:42:04.963Z,76.80
2017-11-08T23:44:32.726Z,67.90
2017-11-08T23:47:00.591Z,75.37
2017-11-08T23:49:28.354Z,68.30
2017-11-08T23:51:56.214Z,68.60
2017-11-08T23:54:24.380Z,79.73
2017-11-08T23:56:52.770Z,79.87
2017-11-08T23:59:26.258Z,77.50
